createdAt,value
2023-04-28T00:00:05.884Z,4.85
2023-04-28T00:02:34.375Z,4.72
2023-04-28T00:05:03.960Z,4.88
2023-04-28T00:07:32.017Z,5.38
2023-04-28T00:10:00.008Z,4.80
2023-04-28T00:12:27.757Z,4.47
2023-04-28T00:14:55.842Z,4.63
2023-04-28T00:17:23.909Z,4.82
2023-04-28T00:19:51.805Z,4.70
2023-04-28T00:22:21.291Z,4.97
2023-04-28T00:24:49.046Z,4.30
2023-04-28T00:27:16.922Z,4.53
2023-04-28T00:29:44.877Z,4.43
2023-04-28T00:32:13.673Z,4.72
2023-04-28T00:34:41.977Z,4.30
2023-04-28T00:37:09.842Z,4.22
2023-04-28T00:39:39.125Z,4.50
2023-04-28T00:42:07.309Z,4.72
2023-04-28T00:44:35.578Z,4.30
2023-04-28T00:47:04.054Z,3.90
2023-04-28T00:49:32.060Z,4.82
2023-04-28T00:52:03.708Z,4.57
2023-04-28T00:54:31.844Z,4.10
2023-04-28T00:57:03.325Z,4.10
2023-04-28T00:59:31.743Z,4.32
2023-04-28T01:02:01.757Z,4.22
2023-04-28T01:04:31.319Z,4.32
2023-04-28T01:07:00.447Z,4.22
2023-04-28T01:09:28.863Z,3.97
2023-04-28T01:11:58.586Z,4.82
2023-04-28T01:14:54.165Z,4.13
2023-04-28T01:17:22.509Z,4.35
2023-04-28T01:19:50.562Z,4.75
2023-04-28T01:22:18.471Z,3.75
2023-04-28T01:24:48.934Z,4.93
2023-04-28T01:27:17.119Z,4.10
2023-04-28T01:29:45.671Z,3.97
2023-04-28T01:32:13.816Z,4.75
2023-04-28T01:34:41.583Z,4.70
2023-04-28T01:37:09.513Z,4.75
2023-04-28T01:39:38.616Z,4.55
2023-04-28T01:42:08.328Z,4.18
2023-04-28T01:44:36.814Z,4.18
2023-04-28T01:47:04.701Z,4.07
2023-04-28T01:49:36.172Z,4.10
2023-04-28T01:52:04.449Z,4.53
2023-04-28T01:54:32.235Z,4.63
2023-04-28T01:57:00.254Z,4.47
2023-04-28T01:59:29.764Z,4.25
2023-04-28T02:01:57.749Z,4.25
2023-04-28T02:04:27.377Z,4.63
2023-04-28T02:06:55.434Z,4.05
2023-04-28T02:09:23.513Z,4.40
2023-04-28T02:11:51.897Z,4.18
2023-04-28T02:14:22.165Z,4.43
2023-04-28T02:16:51.372Z,4.35
2023-04-28T02:19:19.363Z,4.40
2023-04-28T02:21:47.265Z,4.45
2023-04-28T02:24:15.311Z,4.65
2023-04-28T02:26:43.746Z,4.25
2023-04-28T02:29:11.695Z,4.20
2023-04-28T02:31:39.695Z,4.05
2023-04-28T02:34:09.052Z,4.53
2023-04-28T02:36:36.923Z,4.07
2023-04-28T02:39:05.123Z,4.45
2023-04-28T02:41:34.648Z,4.65
2023-04-28T02:44:02.678Z,3.90
2023-04-28T02:46:30.747Z,4.15
2023-04-28T02:48:58.770Z,4.97
2023-04-28T02:51:28.748Z,4.55
2023-04-28T02:53:56.658Z,4.68
2023-04-28T02:56:25.070Z,4.50
2023-04-28T02:58:53.451Z,4.95
2023-04-28T03:01:21.584Z,4.10
2023-04-28T03:03:49.615Z,4.20
2023-04-28T03:06:17.814Z,4.15
2023-04-28T03:08:47.613Z,4.10
2023-04-28T03:11:15.502Z,4.30
2023-04-28T03:13:43.303Z,4.60
2023-04-28T03:16:11.446Z,4.10
2023-04-28T03:18:39.383Z,4.43
2023-04-28T03:21:07.507Z,4.63
2023-04-28T03:23:35.823Z,4.40
2023-04-28T03:26:05.507Z,4.13
2023-04-28T03:28:33.502Z,4.85
2023-04-28T03:31:02.786Z,4.43
2023-04-28T03:33:31.604Z,4.55
2023-04-28T03:36:00.893Z,4.30
2023-04-28T03:38:29.325Z,4.53
2023-04-28T03:40:57.345Z,4.43
2023-04-28T03:43:45.252Z,4.10
2023-04-28T03:46:24.066Z,4.13
2023-04-28T03:48:53.666Z,4.45
2023-04-28T03:51:22.096Z,4.55
2023-04-28T03:53:49.998Z,4.47
2023-04-28T03:56:18.475Z,5.30
2023-04-28T03:58:48.142Z,4.75
2023-04-28T04:01:16.319Z,4.15
2023-04-28T04:03:44.554Z,4.45
2023-04-28T04:06:13.103Z,5.07
2023-04-28T04:08:42.867Z,4.88
2023-04-28T04:11:10.786Z,4.35
2023-04-28T04:13:38.848Z,4.68
2023-04-28T04:16:11.469Z,4.88
2023-04-28T04:18:39.298Z,4.60
2023-04-28T04:21:19.776Z,4.78
2023-04-28T04:23:48.875Z,5.18
2023-04-28T04:26:17.534Z,4.75
2023-04-28T04:28:45.582Z,5.07
2023-04-28T04:31:15.418Z,5.30
2023-04-28T04:33:44.387Z,4.78
2023-04-28T04:36:12.454Z,5.10
2023-04-28T04:38:40.605Z,4.82
2023-04-28T04:41:17.797Z,5.95
2023-04-28T04:43:45.747Z,5.57
2023-04-28T04:46:15.025Z,5.35
2023-04-28T04:48:43.348Z,6.70
2023-04-28T04:51:11.424Z,5.85
2023-04-28T04:53:39.612Z,6.57
2023-04-28T04:56:08.008Z,6.38
2023-04-28T04:58:38.104Z,7.18
2023-04-28T05:01:24.764Z,6.82
2023-04-28T05:03:53.396Z,7.97
2023-04-28T05:06:21.513Z,7.03
2023-04-28T05:08:50.080Z,7.15
2023-04-28T05:11:18.936Z,7.20
2023-04-28T05:13:47.478Z,8.13
2023-04-28T05:16:15.781Z,7.45
2023-04-28T05:19:05.489Z,8.00
2023-04-28T05:21:33.875Z,8.65
2023-04-28T05:24:01.659Z,8.65
2023-04-28T05:26:30.911Z,8.88
2023-04-28T05:29:04.264Z,9.38
2023-04-28T05:31:32.184Z,9.10
2023-04-28T05:34:00.179Z,10.07
2023-04-28T05:36:30.388Z,9.30
2023-04-28T05:38:58.313Z,10.40
2023-04-28T05:41:26.971Z,10.18
2023-04-28T05:43:56.077Z,9.73
2023-04-28T05:46:30.476Z,9.60
2023-04-28T05:49:00.283Z,9.68
2023-04-28T05:51:34.217Z,10.63
2023-04-28T05:54:03.233Z,10.30
2023-04-28T05:56:32.797Z,9.95
2023-04-28T05:59:04.705Z,10.55
2023-04-28T06:01:33.052Z,10.30
2023-04-28T06:04:01.408Z,11.10
2023-04-28T06:06:29.884Z,10.43
2023-04-28T06:08:59.296Z,11.57
2023-04-28T06:11:27.376Z,11.32
2023-04-28T06:13:55.585Z,11.73
2023-04-28T06:16:24.377Z,11.25
2023-04-28T06:18:53.291Z,12.32
2023-04-28T06:21:22.344Z,11.27
2023-04-28T06:23:50.476Z,11.88
2023-04-28T06:26:20.169Z,12.50
2023-04-28T06:28:48.120Z,11.45
2023-04-28T06:31:16.463Z,12.27
2023-04-28T06:33:44.369Z,11.50
2023-04-28T06:36:14.100Z,12.38
2023-04-28T06:38:43.942Z,12.50
2023-04-28T06:41:12.161Z,12.45
2023-04-28T06:43:43.634Z,13.10
2023-04-28T06:46:15.752Z,12.02
2023-04-28T06:48:44.291Z,13.23
2023-04-28T06:51:12.894Z,12.93
2023-04-28T06:53:41.189Z,12.52
2023-04-28T06:56:11.252Z,12.88
2023-04-28T06:58:39.674Z,13.35
2023-04-28T07:01:09.170Z,13.73
2023-04-28T07:03:37.417Z,13.68
2023-04-28T07:06:06.984Z,13.40
2023-04-28T07:08:38.557Z,14.18
2023-04-28T07:11:07.078Z,14.50
2023-04-28T07:13:35.205Z,13.35
2023-04-28T07:16:03.246Z,14.07
2023-04-28T07:18:32.632Z,13.88
2023-04-28T07:21:01.169Z,14.75
2023-04-28T07:23:30.229Z,14.82
2023-04-28T07:25:58.759Z,14.07
2023-04-28T07:28:26.728Z,14.32
2023-04-28T07:30:54.944Z,15.32
2023-04-28T07:33:22.905Z,15.75
2023-04-28T07:35:53.200Z,15.85
2023-04-28T07:38:21.510Z,15.98
2023-04-28T07:43:23.245Z,15.95
2023-04-28T07:45:51.514Z,15.75
2023-04-28T07:48:19.423Z,15.65
2023-04-28T07:50:47.619Z,15.60
2023-04-28T07:53:17.017Z,15.23
2023-04-28T07:55:45.959Z,14.88
2023-04-28T07:58:14.350Z,16.33
2023-04-28T08:00:42.551Z,14.98
2023-04-28T08:03:10.917Z,15.77
2023-04-28T08:05:39.846Z,15.57
2023-04-28T08:08:07.905Z,15.98
2023-04-28T08:10:38.327Z,15.43
2023-04-28T08:13:06.184Z,15.75
2023-04-28T08:15:34.416Z,16.17
2023-04-28T08:18:02.550Z,15.15
2023-04-28T08:20:32.750Z,15.45
2023-04-28T08:23:00.556Z,16.75
2023-04-28T08:25:28.634Z,16.30
2023-04-28T08:27:58.856Z,15.13
2023-04-28T08:30:27.056Z,15.13
2023-04-28T08:32:54.964Z,16.25
2023-04-28T08:35:23.414Z,15.13
2023-04-28T08:37:51.251Z,13.93
2023-04-28T08:40:19.246Z,14.82
2023-04-28T08:42:47.369Z,14.55
2023-04-28T08:45:16.775Z,13.98
2023-04-28T08:47:47.626Z,13.93
2023-04-28T08:50:15.906Z,13.75
2023-04-28T08:52:44.484Z,13.80
2023-04-28T08:55:13.873Z,13.85
2023-04-28T08:57:44.930Z,14.57
2023-04-28T09:00:14.019Z,14.27
2023-04-28T09:02:43.664Z,14.90
2023-04-28T09:05:13.806Z,14.75
2023-04-28T09:07:42.562Z,16.23
2023-04-28T09:10:18.698Z,17.38
2023-04-28T09:12:46.967Z,15.30
2023-04-28T09:15:27.019Z,15.57
2023-04-28T09:17:56.356Z,15.73
2023-04-28T09:20:24.851Z,14.85
2023-04-28T09:22:54.396Z,15.23
2023-04-28T09:25:23.625Z,16.15
2023-04-28T09:27:53.362Z,14.60
2023-04-28T09:30:21.904Z,15.43
2023-04-28T09:33:10.703Z,15.00
2023-04-28T09:35:43.181Z,15.18
2023-04-28T09:38:11.248Z,14.45
2023-04-28T09:40:54.431Z,14.23
2023-04-28T09:43:30.663Z,14.50
2023-04-28T09:46:00.048Z,15.02
2023-04-28T09:48:33.824Z,14.30
2023-04-28T09:51:03.100Z,14.85
2023-04-28T09:53:31.593Z,15.55
2023-04-28T09:56:01.428Z,15.70
2023-04-28T09:58:30.711Z,15.10
2023-04-28T10:01:00.044Z,15.90
2023-04-28T10:03:31.997Z,15.82
2023-04-28T10:06:00.540Z,15.70
2023-04-28T10:08:28.803Z,15.63
2023-04-28T10:10:57.904Z,16.63
2023-04-28T10:13:26.158Z,15.52
2023-04-28T10:15:55.596Z,16.42
2023-04-28T10:18:24.784Z,16.75
2023-04-28T10:20:59.485Z,16.27
2023-04-28T10:24:04.861Z,15.80
2023-04-28T10:29:06.991Z,16.85
2023-04-28T10:31:37.121Z,17.20
2023-04-28T10:34:23.000Z,16.23
2023-04-28T10:36:55.160Z,17.70
2023-04-28T10:39:23.306Z,16.10
2023-04-28T10:41:51.440Z,17.10
2023-04-28T10:44:44.152Z,15.95
2023-04-28T10:47:12.430Z,15.85
2023-04-28T10:50:06.923Z,15.88
2023-04-28T10:52:57.385Z,16.52
2023-04-28T10:55:33.752Z,14.65
2023-04-28T10:58:33.635Z,14.45
2023-04-28T11:01:26.703Z,13.82
2023-04-28T11:04:00.771Z,13.82
2023-04-28T11:06:31.519Z,13.82
2023-04-28T11:09:02.429Z,12.98
2023-04-28T11:11:30.862Z,12.27
2023-04-28T11:14:31.782Z,12.23
2023-04-28T11:17:01.212Z,11.10
2023-04-28T11:19:30.589Z,11.38
2023-04-28T11:22:01.164Z,11.15
2023-04-28T11:24:31.697Z,10.95
2023-04-28T11:27:00.623Z,11.25
2023-04-28T11:29:36.088Z,11.40
2023-04-28T11:32:04.613Z,11.73
2023-04-28T11:34:32.817Z,11.20
2023-04-28T11:37:01.116Z,11.98
2023-04-28T11:39:31.508Z,11.10
2023-04-28T11:42:00.267Z,14.65
2023-04-28T11:44:29.662Z,16.27
2023-04-28T11:47:00.870Z,16.77
2023-04-28T11:49:30.377Z,16.77
2023-04-28T11:52:00.464Z,17.83
2023-04-28T11:54:30.599Z,17.52
2023-04-28T11:56:59.426Z,16.88
2023-04-28T11:59:28.905Z,17.63
2023-04-28T12:01:59.200Z,16.73
2023-04-28T12:04:28.720Z,17.17
2023-04-28T12:07:01.244Z,16.10
2023-04-28T12:09:31.012Z,15.32
2023-04-28T12:11:59.892Z,16.23
2023-04-28T12:14:27.865Z,15.48
2023-04-28T12:16:56.983Z,14.38
2023-04-28T12:19:25.348Z,13.02
2023-04-28T12:22:01.099Z,11.40
2023-04-28T12:24:30.625Z,11.40
2023-04-28T12:27:17.552Z,10.43
2023-04-28T12:29:47.417Z,11.77
2023-04-28T12:32:16.135Z,10.82
2023-04-28T12:34:46.021Z,11.38
2023-04-28T12:37:14.366Z,10.52
2023-04-28T12:39:44.257Z,11.18
2023-04-28T12:42:12.437Z,11.23
2023-04-28T12:44:40.976Z,10.88
2023-04-28T12:47:10.938Z,11.52
2023-04-28T12:49:39.128Z,11.27
2023-04-28T12:52:07.877Z,11.65
2023-04-28T12:54:35.885Z,11.43
2023-04-28T12:57:05.745Z,10.52
2023-04-28T12:59:34.763Z,10.65
2023-04-28T13:02:03.453Z,10.40
2023-04-28T13:04:32.395Z,10.10
2023-04-28T13:07:00.784Z,7.07
2023-04-28T13:09:28.749Z,7.15
2023-04-28T13:11:56.920Z,6.30
2023-04-28T13:14:28.032Z,6.10
2023-04-28T13:16:56.165Z,6.10
2023-04-28T13:19:24.212Z,5.40
2023-04-28T13:21:52.249Z,5.53
2023-04-28T13:24:20.487Z,3.75
2023-04-28T13:26:48.588Z,3.63
2023-04-28T13:29:16.505Z,3.67
2023-04-28T13:31:46.315Z,3.08
2023-04-28T13:34:16.387Z,2.65
2023-04-28T13:36:45.062Z,2.63
2023-04-28T13:39:14.819Z,2.67
2023-04-28T13:41:43.053Z,2.50
2023-04-28T13:44:11.052Z,2.60
2023-04-28T13:46:38.969Z,2.33
2023-04-28T13:49:08.441Z,2.63
2023-04-28T13:51:36.506Z,2.72
2023-04-28T13:54:05.520Z,2.85
2023-04-28T13:56:33.372Z,2.85
2023-04-28T13:59:01.556Z,3.08
2023-04-28T14:01:29.862Z,2.80
2023-04-28T14:03:58.212Z,3.10
2023-04-28T14:06:28.903Z,3.78
2023-04-28T14:08:57.288Z,3.63
2023-04-28T14:11:25.350Z,3.83
2023-04-28T14:13:53.478Z,4.00
2023-04-28T14:16:21.709Z,4.13
2023-04-28T14:18:49.942Z,3.88
2023-04-28T14:21:17.854Z,4.55
2023-04-28T14:23:47.452Z,4.40
2023-04-28T14:26:15.410Z,4.40
2023-04-28T14:28:43.450Z,3.97
2023-04-28T14:31:11.400Z,4.90
2023-04-28T14:33:39.218Z,5.03
2023-04-28T14:36:07.462Z,12.65
2023-04-28T14:38:35.771Z,12.85
2023-04-28T14:41:06.259Z,21.88
2023-04-28T14:43:34.235Z,16.85
2023-04-28T14:46:02.350Z,18.45
2023-04-28T14:48:30.187Z,11.98
2023-04-28T14:50:58.704Z,24.85
2023-04-28T14:53:27.260Z,14.35
2023-04-28T14:56:01.950Z,11.07
2023-04-28T14:58:36.870Z,5.05
2023-04-28T15:01:05.050Z,3.78
2023-04-28T15:03:33.276Z,3.97
2023-04-28T15:06:01.863Z,3.80
2023-04-28T15:08:30.176Z,3.50
2023-04-28T15:10:58.435Z,3.78
2023-04-28T15:13:27.950Z,4.55
2023-04-28T15:15:57.554Z,5.90
2023-04-28T15:18:25.703Z,5.93
2023-04-28T15:20:54.004Z,7.13
2023-04-28T15:23:22.474Z,7.75
2023-04-28T15:25:53.543Z,7.22
2023-04-28T15:28:22.168Z,8.00
2023-04-28T15:30:50.329Z,8.38
2023-04-28T15:33:19.711Z,9.02
2023-04-28T15:35:47.714Z,11.05
2023-04-28T15:38:16.384Z,12.38
2023-04-28T15:40:44.665Z,10.80
2023-04-28T15:43:13.423Z,12.07
2023-04-28T15:45:41.535Z,11.75
2023-04-28T15:48:10.200Z,10.45
2023-04-28T15:50:40.144Z,10.65
2023-04-28T15:53:08.208Z,11.32
2023-04-28T15:55:36.893Z,11.25
2023-04-28T15:58:04.967Z,10.30
2023-04-28T16:00:33.444Z,11.15
2023-04-28T16:03:01.706Z,10.45
2023-04-28T16:05:29.835Z,10.43
2023-04-28T16:07:58.994Z,11.15
2023-04-28T16:10:27.098Z,10.30
2023-04-28T16:12:54.923Z,11.23
2023-04-28T16:15:23.089Z,10.85
2023-04-28T16:17:52.020Z,11.60
2023-04-28T16:20:20.107Z,11.40
2023-04-28T16:22:48.443Z,11.75
2023-04-28T16:25:17.924Z,12.27
2023-04-28T16:27:46.421Z,12.70
2023-04-28T16:30:14.429Z,12.18
2023-04-28T16:32:42.632Z,13.25
2023-04-28T16:35:15.105Z,13.00
2023-04-28T16:37:44.159Z,14.80
2023-04-28T16:40:13.321Z,13.40
2023-04-28T16:42:43.882Z,13.90
2023-04-28T16:45:12.701Z,12.73
2023-04-28T16:47:42.551Z,14.02
2023-04-28T16:50:11.600Z,15.32
2023-04-28T16:52:39.513Z,14.88
2023-04-28T16:55:08.607Z,14.27
2023-04-28T16:57:36.798Z,14.52
2023-04-28T17:00:08.545Z,15.45
2023-04-28T17:02:36.662Z,14.18
2023-04-28T17:05:04.869Z,14.27
2023-04-28T17:07:32.608Z,15.30
2023-04-28T17:10:00.796Z,16.80
2023-04-28T17:12:28.973Z,16.88
2023-04-28T17:14:57.116Z,16.42
2023-04-28T17:17:26.451Z,15.88
2023-04-28T17:19:54.290Z,14.63
2023-04-28T17:22:22.312Z,15.02
2023-04-28T17:24:50.400Z,13.90
2023-04-28T17:27:18.488Z,13.07
2023-04-28T17:29:46.333Z,13.20
2023-04-28T17:32:14.099Z,13.88
2023-04-28T17:34:43.714Z,12.98
2023-04-28T17:37:11.904Z,12.32
2023-04-28T17:39:39.821Z,11.82
2023-04-28T17:42:08.020Z,11.18
2023-04-28T17:44:35.786Z,10.73
2023-04-28T17:47:03.832Z,10.15
2023-04-28T17:49:31.919Z,9.88
2023-04-28T17:52:01.203Z,9.90
2023-04-28T17:54:29.119Z,9.75
2023-04-28T17:56:57.353Z,10.60
2023-04-28T17:59:25.538Z,9.38
2023-04-28T18:01:56.223Z,9.75
2023-04-28T18:04:24.393Z,8.73
2023-04-28T18:06:52.252Z,8.35
2023-04-28T18:09:21.628Z,8.18
2023-04-28T18:11:49.512Z,7.70
2023-04-28T18:14:18.573Z,8.23
2023-04-28T18:16:46.640Z,8.20
2023-04-28T18:19:14.636Z,5.55
2023-04-28T18:21:42.721Z,4.15
2023-04-28T18:24:10.610Z,4.13
2023-04-28T18:26:39.952Z,3.65
2023-04-28T18:29:07.688Z,3.40
2023-04-28T18:31:35.769Z,2.90
2023-04-28T18:34:05.157Z,3.05
2023-04-28T18:36:34.767Z,3.42
2023-04-28T18:39:04.214Z,3.72
2023-04-28T18:41:34.437Z,4.45
2023-04-28T18:44:04.201Z,4.22
2023-04-28T18:46:32.883Z,4.80
2023-04-28T18:49:00.869Z,4.82
2023-04-28T18:51:28.781Z,6.03
2023-04-28T18:53:57.015Z,7.68
2023-04-28T18:56:24.921Z,8.18
2023-04-28T18:58:52.798Z,9.35
2023-04-28T19:01:22.512Z,9.60
2023-04-28T19:03:51.922Z,10.23
2023-04-28T19:06:20.385Z,11.25
2023-04-28T19:08:48.299Z,12.23
2023-04-28T19:11:16.140Z,12.40
2023-04-28T19:13:45.085Z,11.50
2023-04-28T19:16:13.744Z,12.48
2023-04-28T19:18:44.554Z,12.25
2023-04-28T19:21:13.784Z,12.82
2023-04-28T19:23:41.962Z,12.20
2023-04-28T19:26:10.619Z,13.50
2023-04-28T19:28:38.528Z,15.73
2023-04-28T19:31:06.410Z,14.75
2023-04-28T19:33:34.274Z,16.50
2023-04-28T19:36:05.463Z,17.67
2023-04-28T19:38:35.478Z,16.77
2023-04-28T19:41:03.514Z,17.60
2023-04-28T19:43:31.651Z,17.55
2023-04-28T19:45:59.656Z,17.33
2023-04-28T19:48:27.530Z,17.90
2023-04-28T19:50:56.546Z,18.23
2023-04-28T19:53:25.866Z,18.05
2023-04-28T19:55:54.932Z,19.05
2023-04-28T19:58:23.008Z,19.48
2023-04-28T20:00:51.079Z,19.70
2023-04-28T20:03:19.156Z,20.70
2023-04-28T20:05:47.254Z,19.83
2023-04-28T20:08:15.233Z,20.63
2023-04-28T20:10:44.581Z,20.45
2023-04-28T20:13:12.761Z,22.33
2023-04-28T20:15:40.660Z,20.70
2023-04-28T20:18:08.869Z,21.80
2023-04-28T20:20:36.717Z,22.80
2023-04-28T20:23:04.459Z,22.55
2023-04-28T20:25:32.512Z,23.23
2023-04-28T20:28:01.709Z,24.90
2023-04-28T20:30:29.533Z,23.65
2023-04-28T20:32:57.501Z,26.23
2023-04-28T20:35:25.425Z,25.48
2023-04-28T20:37:53.804Z,27.00
2023-04-28T20:40:22.986Z,28.38
2023-04-28T20:42:50.757Z,27.98
2023-04-28T20:45:20.464Z,30.10
2023-04-28T20:47:48.619Z,28.75
2023-04-28T20:50:16.638Z,27.67
2023-04-28T20:52:45.155Z,30.23
2023-04-28T20:55:12.899Z,30.85
2023-04-28T20:57:40.948Z,33.63
2023-04-28T21:00:10.760Z,33.95
2023-04-28T21:02:40.452Z,32.65
2023-04-28T21:05:09.066Z,33.00
2023-04-28T21:07:36.851Z,34.90
2023-04-28T21:10:05.312Z,36.92
2023-04-28T21:12:33.207Z,38.70
2023-04-28T21:15:01.210Z,39.95
2023-04-28T21:17:29.374Z,40.60
2023-04-28T21:19:59.000Z,43.60
2023-04-28T21:22:27.977Z,42.80
2023-04-28T21:24:56.168Z,42.63
2023-04-28T21:27:24.357Z,44.75
2023-04-28T21:29:52.894Z,44.30
2023-04-28T21:32:21.010Z,43.88
2023-04-28T21:34:49.806Z,46.38
2023-04-28T21:37:19.365Z,46.63
2023-04-28T21:39:47.159Z,46.70
2023-04-28T21:42:15.345Z,48.10
2023-04-28T21:44:43.034Z,49.20
2023-04-28T21:47:10.924Z,47.47
2023-04-28T21:49:38.738Z,48.15
2023-04-28T21:52:06.559Z,48.45
2023-04-28T21:54:35.925Z,47.40
2023-04-28T21:57:04.015Z,44.28
2023-04-28T21:59:32.312Z,41.30
2023-04-28T22:02:00.302Z,40.58
2023-04-28T22:04:29.006Z,40.50
2023-04-28T22:06:57.352Z,37.72
2023-04-28T22:09:25.841Z,34.55
2023-04-28T22:11:55.132Z,34.92
2023-04-28T22:14:39.561Z,30.52
2023-04-28T22:17:09.198Z,32.08
2023-04-28T22:19:37.003Z,29.70
2023-04-28T22:22:05.554Z,30.10
2023-04-28T22:24:33.434Z,29.45
2023-04-28T22:27:03.253Z,30.45
2023-04-28T22:29:31.291Z,30.52
2023-04-28T22:31:59.712Z,32.05
2023-04-28T22:34:28.181Z,31.02
2023-04-28T22:36:56.177Z,31.75
2023-04-28T22:39:25.171Z,29.25
2023-04-28T22:41:53.144Z,30.77
2023-04-28T22:44:22.669Z,29.55
2023-04-28T22:46:50.807Z,29.02
2023-04-28T22:49:24.685Z,28.55
2023-04-28T22:51:52.637Z,27.73
2023-04-28T22:54:20.776Z,28.38
2023-04-28T22:56:50.314Z,28.30
2023-04-28T22:59:20.153Z,27.95
2023-04-28T23:01:49.637Z,28.90
2023-04-28T23:04:17.940Z,27.67
2023-04-28T23:06:46.070Z,26.27
2023-04-28T23:09:14.084Z,27.58
2023-04-28T23:11:42.021Z,25.98
2023-04-28T23:14:09.903Z,26.33
2023-04-28T23:16:38.210Z,27.77
2023-04-28T23:19:08.765Z,25.88
2023-04-28T23:21:36.764Z,26.33
2023-04-28T23:24:05.092Z,26.83
2023-04-28T23:26:33.259Z,26.85
2023-04-28T23:29:01.085Z,27.90
2023-04-28T23:31:29.513Z,28.02
2023-04-28T23:33:57.632Z,28.33
2023-04-28T23:36:27.967Z,25.27
2023-04-28T23:38:55.804Z,27.08
2023-04-28T23:41:23.630Z,28.02
2023-04-28T23:43:52.015Z,28.67
2023-04-28T23:46:20.473Z,26.65
2023-04-28T23:48:48.344Z,28.30
2023-04-28T23:51:16.326Z,28.40
2023-04-28T23:53:46.089Z,29.77
2023-04-28T23:56:14.110Z,27.33
2023-04-28T23:58:42.301Z,28.67
